Main page
METAR-TAF:

METAR-TAF

Airports :

Yakutsk Airport

Yakutsk, Russia

latitude: 62-01N, longitude: 129-43E, elevation: 103 m

Current weather observation

The report was made 15 minutes ago, at 00:30 UTC
Calm wind
Temperature -33°C
Humidity 74%
Pressure 1023 hPa
Visibility 10 km or more
no clouds below 1500 m and no cumulonimbus

METAR: UEEE 180030Z 00000MPS CAVOK M33/M36 Q1023 R23L/490153 NOSIG RMK QFE758

Time: 09:45 (00:45 UTC)

Forecast

The report was made 1 hour and 45 minutes ago, at 23:00 UTC
Forecast valid from 18 at 00 UTC to 19 at 06 UTC
Wind 6 kt from the West/Northwest
Visibility 10 km or more
Scattered clouds at a height of 2000 ft
light snow
Temporary
from 18 at 00 UTC to 18 at 12 UTC
Visibility: 2100 m
Scattered clouds at a height of 700 ft
Broken clouds at a height of 2000 ft
light snow

TAF: UEEE 172300Z 1800/1906 30003MPS 9999 -SN SCT020 TEMPO 1800/1812 2100 -SN SCT007 BKN020

Weather observations and forecasts of more than 4000 airports (METAR and TAF reports).

The available stations are represented by yellow and red dots on the map.

Hover mouse over dot to see the name of the station.

Then click to see weather observations and forecasts.

To change the map : click on the green buttons with a black cross to zoom in, on the green button with a dash to zoom out, or on the green arrows for adjacent maps.


METAR-TAF: